sensor_id;sensor_type;location;lat;lon;timestamp;P1;durP1;ratioP1;P2;durP2;ratioP2
9330;SDS011;4704;50.470;12.072;2022-12-10T00:00:18;6.88;;;6.30;;
9330;SDS011;4704;50.470;12.072;2022-12-10T00:02:46;6.28;;;5.78;;
9330;SDS011;4704;50.470;12.072;2022-12-10T00:05:14;7.20;;;6.13;;
9330;SDS011;4704;50.470;12.072;2022-12-10T00:07:42;5.85;;;5.40;;
9330;SDS011;4704;50.470;12.072;2022-12-10T00:10:10;6.53;;;6.03;;
9330;SDS011;4704;50.470;12.072;2022-12-10T00:12:39;6.20;;;5.70;;
9330;SDS011;4704;50.470;12.072;2022-12-10T00:15:07;6.72;;;6.13;;
9330;SDS011;4704;50.470;12.072;2022-12-10T00:17:35;6.85;;;6.25;;
9330;SDS011;4704;50.470;12.072;2022-12-10T00:20:03;6.38;;;5.88;;
9330;SDS011;4704;50.470;12.072;2022-12-10T00:22:33;6.38;;;5.88;;
9330;SDS011;4704;50.470;12.072;2022-12-10T00:25:01;6.72;;;6.22;;
9330;SDS011;4704;50.470;12.072;2022-12-10T00:27:30;6.18;;;5.68;;
9330;SDS011;4704;50.470;12.072;2022-12-10T00:30:02;6.72;;;6.22;;
9330;SDS011;4704;50.470;12.072;2022-12-10T00:32:30;6.47;;;5.95;;
9330;SDS011;4704;50.470;12.072;2022-12-10T00:34:58;7.07;;;6.47;;
9330;SDS011;4704;50.470;12.072;2022-12-10T00:37:26;6.32;;;5.82;;
9330;SDS011;4704;50.470;12.072;2022-12-10T00:39:54;6.90;;;6.40;;
9330;SDS011;4704;50.470;12.072;2022-12-10T00:42:21;7.00;;;6.40;;
9330;SDS011;4704;50.470;12.072;2022-12-10T00:44:49;6.20;;;5.70;;
9330;SDS011;4704;50.470;12.072;2022-12-10T00:47:19;6.47;;;5.97;;
9330;SDS011;4704;50.470;12.072;2022-12-10T00:49:47;6.50;;;6.00;;
9330;SDS011;4704;50.470;12.072;2022-12-10T00:52:14;6.43;;;5.93;;
9330;SDS011;4704;50.470;12.072;2022-12-10T00:54:42;6.40;;;5.90;;
9330;SDS011;4704;50.470;12.072;2022-12-10T00:57:10;6.40;;;5.90;;
9330;SDS011;4704;50.470;12.072;2022-12-10T00:59:38;6.57;;;6.07;;
9330;SDS011;4704;50.470;12.072;2022-12-10T01:02:05;6.47;;;5.97;;
9330;SDS011;4704;50.470;12.072;2022-12-10T01:04:35;7.25;;;6.65;;
9330;SDS011;4704;50.470;12.072;2022-12-10T01:07:02;6.97;;;6.38;;
9330;SDS011;4704;50.470;12.072;2022-12-10T01:09:30;7.00;;;6.40;;
9330;SDS011;4704;50.470;12.072;2022-12-10T01:12:01;6.97;;;6.38;;
9330;SDS011;4704;50.470;12.072;2022-12-10T01:14:29;6.97;;;6.38;;
9330;SDS011;4704;50.470;12.072;2022-12-10T01:16:59;6.80;;;6.25;;
9330;SDS011;4704;50.470;12.072;2022-12-10T01:19:28;6.75;;;6.25;;
9330;SDS011;4704;50.470;12.072;2022-12-10T01:21:58;6.40;;;5.90;;
9330;SDS011;4704;50.470;12.072;2022-12-10T01:24:26;7.10;;;6.50;;
9330;SDS011;4704;50.470;12.072;2022-12-10T01:26:54;6.95;;;6.35;;
9330;SDS011;4704;50.470;12.072;2022-12-10T01:29:22;6.55;;;6.03;;
9330;SDS011;4704;50.470;12.072;2022-12-10T01:31:50;7.00;;;6.40;;
9330;SDS011;4704;50.470;12.072;2022-12-10T01:34:18;7.40;;;6.80;;
9330;SDS011;4704;50.470;12.072;2022-12-10T01:36:48;6.90;;;6.30;;
9330;SDS011;4704;50.470;12.072;2022-12-10T01:39:18;7.40;;;6.80;;
9330;SDS011;4704;50.470;12.072;2022-12-10T01:41:47;6.90;;;6.30;;
9330;SDS011;4704;50.470;12.072;2022-12-10T01:47:01;7.78;;;7.18;;
9330;SDS011;4704;50.470;12.072;2022-12-10T01:49:31;6.97;;;6.38;;
9330;SDS011;4704;50.470;12.072;2022-12-10T01:52:00;7.18;;;6.57;;
9330;SDS011;4704;50.470;12.072;2022-12-10T01:54:31;7.25;;;6.65;;
9330;SDS011;4704;50.470;12.072;2022-12-10T01:57:00;6.90;;;6.40;;
9330;SDS011;4704;50.470;12.072;2022-12-10T01:59:28;7.70;;;7.10;;
9330;SDS011;4704;50.470;12.072;2022-12-10T02:01:57;6.97;;;6.47;;
9330;SDS011;4704;50.470;12.072;2022-12-10T02:04:29;6.72;;;6.22;;
9330;SDS011;4704;50.470;12.072;2022-12-10T02:07:02;7.32;;;6.68;;
9330;SDS011;4704;50.470;12.072;2022-12-10T02:09:35;7.05;;;6.55;;
9330;SDS011;4704;50.470;12.072;2022-12-10T02:12:07;7.22;;;6.63;;
9330;SDS011;4704;50.470;12.072;2022-12-10T02:14:38;6.85;;;6.35;;
9330;SDS011;4704;50.470;12.072;2022-12-10T02:17:11;7.18;;;6.57;;
9330;SDS011;4704;50.470;12.072;2022-12-10T02:19:49;7.03;;;6.43;;
9330;SDS011;4704;50.470;12.072;2022-12-10T02:22:17;7.93;;;7.22;;
9330;SDS011;4704;50.470;12.072;2022-12-10T02:24:48;7.10;;;6.50;;
9330;SDS011;4704;50.470;12.072;2022-12-10T02:27:19;6.90;;;6.30;;
9330;SDS011;4704;50.470;12.072;2022-12-10T02:29:52;7.75;;;7.05;;
9330;SDS011;4704;50.470;12.072;2022-12-10T02:32:21;7.32;;;6.72;;
9330;SDS011;4704;50.470;12.072;2022-12-10T02:34:50;7.05;;;6.45;;
9330;SDS011;4704;50.470;12.072;2022-12-10T02:37:19;7.03;;;6.43;;
9330;SDS011;4704;50.470;12.072;2022-12-10T02:39:49;7.43;;;6.82;;
9330;SDS011;4704;50.470;12.072;2022-12-10T02:42:18;7.32;;;6.72;;
9330;SDS011;4704;50.470;12.072;2022-12-10T02:44:46;7.32;;;6.70;;
9330;SDS011;4704;50.470;12.072;2022-12-10T02:47:16;7.40;;;6.80;;
9330;SDS011;4704;50.470;12.072;2022-12-10T02:49:46;7.53;;;6.88;;
9330;SDS011;4704;50.470;12.072;2022-12-10T02:52:15;7.82;;;7.13;;
9330;SDS011;4704;50.470;12.072;2022-12-10T02:54:45;7.13;;;6.53;;
9330;SDS011;4704;50.470;12.072;2022-12-10T02:57:22;7.15;;;6.55;;
9330;SDS011;4704;50.470;12.072;2022-12-10T03:00:06;7.30;;;6.70;;
9330;SDS011;4704;50.470;12.072;2022-12-10T03:02:39;6.72;;;6.13;;
9330;SDS011;4704;50.470;12.072;2022-12-10T03:05:11;7.03;;;6.43;;
9330;SDS011;4704;50.470;12.072;2022-12-10T03:07:41;7.75;;;7.15;;
9330;SDS011;4704;50.470;12.072;2022-12-10T03:10:11;6.68;;;6.07;;
9330;SDS011;4704;50.470;12.072;2022-12-10T03:12:41;7.20;;;6.60;;
9330;SDS011;4704;50.470;12.072;2022-12-10T03:15:10;7.07;;;6.47;;
9330;SDS011;4704;50.470;12.072;2022-12-10T03:17:40;7.05;;;6.45;;
9330;SDS011;4704;50.470;12.072;2022-12-10T03:20:10;7.20;;;6.60;;
9330;SDS011;4704;50.470;12.072;2022-12-10T03:22:38;7.50;;;6.90;;
9330;SDS011;4704;50.470;12.072;2022-12-10T03:25:07;7.22;;;6.63;;
9330;SDS011;4704;50.470;12.072;2022-12-10T03:27:37;7.30;;;6.70;;
9330;SDS011;4704;50.470;12.072;2022-12-10T03:30:07;7.20;;;6.60;;
9330;SDS011;4704;50.470;12.072;2022-12-10T03:32:35;6.75;;;6.22;;
9330;SDS011;4704;50.470;12.072;2022-12-10T03:35:04;7.13;;;6.53;;
9330;SDS011;4704;50.470;12.072;2022-12-10T03:37:33;7.43;;;6.82;;
9330;SDS011;4704;50.470;12.072;2022-12-10T03:40:01;7.70;;;7.05;;
9330;SDS011;4704;50.470;12.072;2022-12-10T03:42:30;7.20;;;6.60;;
9330;SDS011;4704;50.470;12.072;2022-12-10T03:44:57;7.10;;;6.50;;
9330;SDS011;4704;50.470;12.072;2022-12-10T03:47:25;7.30;;;6.65;;
9330;SDS011;4704;50.470;12.072;2022-12-10T03:49:53;6.80;;;6.30;;
9330;SDS011;4704;50.470;12.072;2022-12-10T03:52:22;7.32;;;6.72;;
9330;SDS011;4704;50.470;12.072;2022-12-10T03:54:50;7.65;;;6.95;;
9330;SDS011;4704;50.470;12.072;2022-12-10T03:57:18;7.18;;;6.57;;
9330;SDS011;4704;50.470;12.072;2022-12-10T03:59:46;7.13;;;6.53;;
9330;SDS011;4704;50.470;12.072;2022-12-10T04:02:13;6.93;;;6.32;;
9330;SDS011;4704;50.470;12.072;2022-12-10T04:04:42;7.47;;;6.78;;
9330;SDS011;4704;50.470;12.072;2022-12-10T04:07:10;7.18;;;6.57;;
9330;SDS011;4704;50.470;12.072;2022-12-10T04:09:40;7.18;;;6.47;;
9330;SDS011;4704;50.470;12.072;2022-12-10T04:12:07;7.20;;;6.60;;
9330;SDS011;4704;50.470;12.072;2022-12-10T04:14:35;7.47;;;6.88;;
9330;SDS011;4704;50.470;12.072;2022-12-10T04:17:20;7.32;;;6.72;;
9330;SDS011;4704;50.470;12.072;2022-12-10T04:19:48;7.47;;;6.85;;
9330;SDS011;4704;50.470;12.072;2022-12-10T04:22:16;8.00;;;7.30;;
9330;SDS011;4704;50.470;12.072;2022-12-10T04:25:02;7.45;;;6.85;;
9330;SDS011;4704;50.470;12.072;2022-12-10T04:27:46;7.15;;;6.55;;
9330;SDS011;4704;50.470;12.072;2022-12-10T04:30:14;7.40;;;6.80;;
9330;SDS011;4704;50.470;12.072;2022-12-10T04:32:42;7.30;;;6.70;;
9330;SDS011;4704;50.470;12.072;2022-12-10T04:35:10;7.03;;;6.43;;
9330;SDS011;4704;50.470;12.072;2022-12-10T04:37:38;7.05;;;6.45;;
9330;SDS011;4704;50.470;12.072;2022-12-10T04:40:08;7.25;;;6.65;;
9330;SDS011;4704;50.470;12.072;2022-12-10T04:42:36;7.35;;;6.75;;
9330;SDS011;4704;50.470;12.072;2022-12-10T04:45:04;7.22;;;6.63;;
9330;SDS011;4704;50.470;12.072;2022-12-10T04:47:34;6.57;;;6.07;;
9330;SDS011;4704;50.470;12.072;2022-12-10T04:50:03;6.93;;;6.32;;
9330;SDS011;4704;50.470;12.072;2022-12-10T04:52:31;7.32;;;6.72;;
9330;SDS011;4704;50.470;12.072;2022-12-10T04:54:59;7.10;;;6.50;;
9330;SDS011;4704;50.470;12.072;2022-12-10T04:57:28;7.30;;;6.70;;
9330;SDS011;4704;50.470;12.072;2022-12-10T04:59:56;6.57;;;6.07;;
9330;SDS011;4704;50.470;12.072;2022-12-10T05:02:24;6.97;;;6.38;;
9330;SDS011;4704;50.470;12.072;2022-12-10T05:04:51;7.40;;;6.80;;
9330;SDS011;4704;50.470;12.072;2022-12-10T05:07:19;7.05;;;6.45;;
9330;SDS011;4704;50.470;12.072;2022-12-10T05:09:46;7.10;;;6.43;;
9330;SDS011;4704;50.470;12.072;2022-12-10T05:12:14;6.43;;;5.93;;
9330;SDS011;4704;50.470;12.072;2022-12-10T05:14:42;6.70;;;6.20;;
9330;SDS011;4704;50.470;12.072;2022-12-10T05:17:10;6.88;;;6.28;;
9330;SDS011;4704;50.470;12.072;2022-12-10T05:19:37;7.25;;;6.65;;
9330;SDS011;4704;50.470;12.072;2022-12-10T05:22:05;6.93;;;6.43;;
9330;SDS011;4704;50.470;12.072;2022-12-10T05:24:49;6.65;;;6.05;;
9330;SDS011;4704;50.470;12.072;2022-12-10T05:27:17;6.50;;;5.97;;
9330;SDS011;4704;50.470;12.072;2022-12-10T05:29:46;6.50;;;6.00;;
9330;SDS011;4704;50.470;12.072;2022-12-10T05:32:14;7.13;;;6.53;;
9330;SDS011;4704;50.470;12.072;2022-12-10T05:34:41;6.80;;;6.20;;
9330;SDS011;4704;50.470;12.072;2022-12-10T05:37:08;7.00;;;6.40;;
9330;SDS011;4704;50.470;12.072;2022-12-10T05:39:36;6.75;;;6.25;;
9330;SDS011;4704;50.470;12.072;2022-12-10T05:42:03;6.68;;;6.07;;
9330;SDS011;4704;50.470;12.072;2022-12-10T05:44:31;6.70;;;6.10;;
9330;SDS011;4704;50.470;12.072;2022-12-10T05:46:59;6.40;;;5.90;;
9330;SDS011;4704;50.470;12.072;2022-12-10T05:49:27;6.43;;;5.93;;
9330;SDS011;4704;50.470;12.072;2022-12-10T05:51:54;6.85;;;6.25;;
9330;SDS011;4704;50.470;12.072;2022-12-10T05:54:22;7.25;;;6.65;;
9330;SDS011;4704;50.470;12.072;2022-12-10T05:56:50;6.78;;;6.18;;
9330;SDS011;4704;50.470;12.072;2022-12-10T05:59:18;6.30;;;5.80;;
9330;SDS011;4704;50.470;12.072;2022-12-10T06:01:46;6.57;;;6.07;;
9330;SDS011;4704;50.470;12.072;2022-12-10T06:04:14;7.15;;;6.55;;
9330;SDS011;4704;50.470;12.072;2022-12-10T06:06:42;7.20;;;6.60;;
9330;SDS011;4704;50.470;12.072;2022-12-10T06:09:12;6.63;;;6.10;;
9330;SDS011;4704;50.470;12.072;2022-12-10T06:11:40;6.60;;;6.10;;
9330;SDS011;4704;50.470;12.072;2022-12-10T06:14:08;6.97;;;6.38;;
9330;SDS011;4704;50.470;12.072;2022-12-10T06:16:35;7.22;;;6.53;;
9330;SDS011;4704;50.470;12.072;2022-12-10T06:19:02;6.80;;;6.30;;
9330;SDS011;4704;50.470;12.072;2022-12-10T06:21:32;6.45;;;5.95;;
9330;SDS011;4704;50.470;12.072;2022-12-10T06:24:00;6.88;;;6.28;;
9330;SDS011;4704;50.470;12.072;2022-12-10T06:26:28;6.47;;;5.97;;
9330;SDS011;4704;50.470;12.072;2022-12-10T06:28:55;6.70;;;6.10;;
9330;SDS011;4704;50.470;12.072;2022-12-10T06:31:23;6.75;;;6.15;;
9330;SDS011;4704;50.470;12.072;2022-12-10T06:33:51;6.40;;;5.90;;
9330;SDS011;4704;50.470;12.072;2022-12-10T06:36:19;6.57;;;6.07;;
9330;SDS011;4704;50.470;12.072;2022-12-10T06:38:48;6.68;;;6.18;;
9330;SDS011;4704;50.470;12.072;2022-12-10T06:41:16;6.97;;;6.38;;
9330;SDS011;4704;50.470;12.072;2022-12-10T06:43:45;6.28;;;5.78;;
9330;SDS011;4704;50.470;12.072;2022-12-10T06:46:13;6.45;;;5.88;;
9330;SDS011;4704;50.470;12.072;2022-12-10T06:48:41;6.85;;;6.25;;
9330;SDS011;4704;50.470;12.072;2022-12-10T06:51:09;6.40;;;5.80;;
9330;SDS011;4704;50.470;12.072;2022-12-10T06:53:37;6.80;;;6.20;;
9330;SDS011;4704;50.470;12.072;2022-12-10T06:56:07;6.35;;;5.85;;
9330;SDS011;4704;50.470;12.072;2022-12-10T06:58:34;6.70;;;6.13;;
9330;SDS011;4704;50.470;12.072;2022-12-10T07:01:03;6.47;;;5.88;;
9330;SDS011;4704;50.470;12.072;2022-12-10T07:03:31;6.57;;;6.00;;
9330;SDS011;4704;50.470;12.072;2022-12-10T07:05:59;7.22;;;6.53;;
9330;SDS011;4704;50.470;12.072;2022-12-10T07:08:26;7.05;;;6.25;;
9330;SDS011;4704;50.470;12.072;2022-12-10T07:10:54;7.35;;;6.63;;
9330;SDS011;4704;50.470;12.072;2022-12-10T07:13:23;7.15;;;6.45;;
9330;SDS011;4704;50.470;12.072;2022-12-10T07:15:50;7.00;;;6.30;;
9330;SDS011;4704;50.470;12.072;2022-12-10T07:18:18;7.03;;;6.30;;
9330;SDS011;4704;50.470;12.072;2022-12-10T07:20:45;11.50;;;9.32;;
9330;SDS011;4704;50.470;12.072;2022-12-10T07:23:13;14.48;;;12.18;;
9330;SDS011;4704;50.470;12.072;2022-12-10T07:25:40;13.50;;;11.82;;
9330;SDS011;4704;50.470;12.072;2022-12-10T07:28:07;14.93;;;11.98;;
9330;SDS011;4704;50.470;12.072;2022-12-10T07:30:36;13.80;;;12.30;;
9330;SDS011;4704;50.470;12.072;2022-12-10T07:33:04;14.23;;;12.43;;
9330;SDS011;4704;50.470;12.072;2022-12-10T07:35:31;13.43;;;11.98;;
9330;SDS011;4704;50.470;12.072;2022-12-10T07:37:58;13.02;;;11.63;;
9330;SDS011;4704;50.470;12.072;2022-12-10T07:40:26;13.98;;;11.50;;
9330;SDS011;4704;50.470;12.072;2022-12-10T07:42:53;14.02;;;11.88;;
9330;SDS011;4704;50.470;12.072;2022-12-10T07:45:21;14.35;;;11.60;;
9330;SDS011;4704;50.470;12.072;2022-12-10T07:47:51;15.00;;;12.23;;
9330;SDS011;4704;50.470;12.072;2022-12-10T07:50:18;13.10;;;11.43;;
9330;SDS011;4704;50.470;12.072;2022-12-10T07:52:46;16.33;;;14.73;;
9330;SDS011;4704;50.470;12.072;2022-12-10T07:55:13;16.38;;;14.80;;
9330;SDS011;4704;50.470;12.072;2022-12-10T07:57:41;15.70;;;14.20;;
9330;SDS011;4704;50.470;12.072;2022-12-10T08:00:09;14.73;;;13.32;;
9330;SDS011;4704;50.470;12.072;2022-12-10T08:02:36;14.90;;;13.35;;
9330;SDS011;4704;50.470;12.072;2022-12-10T08:05:05;15.38;;;13.23;;
9330;SDS011;4704;50.470;12.072;2022-12-10T08:07:33;14.68;;;13.27;;
9330;SDS011;4704;50.470;12.072;2022-12-10T08:10:01;13.88;;;12.48;;
9330;SDS011;4704;50.470;12.072;2022-12-10T08:12:28;13.73;;;12.30;;
9330;SDS011;4704;50.470;12.072;2022-12-10T08:14:55;13.40;;;11.95;;
9330;SDS011;4704;50.470;12.072;2022-12-10T08:17:23;12.57;;;11.27;;
9330;SDS011;4704;50.470;12.072;2022-12-10T08:19:50;13.18;;;11.85;;
9330;SDS011;4704;50.470;12.072;2022-12-10T08:22:21;12.65;;;11.25;;
9330;SDS011;4704;50.470;12.072;2022-12-10T08:24:48;12.50;;;11.25;;
9330;SDS011;4704;50.470;12.072;2022-12-10T08:27:15;12.88;;;11.57;;
9330;SDS011;4704;50.470;12.072;2022-12-10T08:29:43;11.80;;;10.70;;
9330;SDS011;4704;50.470;12.072;2022-12-10T08:32:10;11.00;;;9.90;;
9330;SDS011;4704;50.470;12.072;2022-12-10T08:34:38;11.32;;;10.23;;
9330;SDS011;4704;50.470;12.072;2022-12-10T08:37:05;11.40;;;10.23;;
9330;SDS011;4704;50.470;12.072;2022-12-10T08:39:34;10.77;;;9.77;;
9330;SDS011;4704;50.470;12.072;2022-12-10T08:42:02;12.45;;;9.48;;
9330;SDS011;4704;50.470;12.072;2022-12-10T08:44:29;12.90;;;9.43;;
9330;SDS011;4704;50.470;12.072;2022-12-10T08:46:57;9.98;;;8.98;;
9330;SDS011;4704;50.470;12.072;2022-12-10T08:49:24;10.75;;;9.65;;
9330;SDS011;4704;50.470;12.072;2022-12-10T08:51:52;9.10;;;8.30;;
9330;SDS011;4704;50.470;12.072;2022-12-10T08:54:19;9.30;;;8.45;;
9330;SDS011;4704;50.470;12.072;2022-12-10T08:56:48;9.90;;;9.00;;
9330;SDS011;4704;50.470;12.072;2022-12-10T08:59:16;9.25;;;8.30;;
9330;SDS011;4704;50.470;12.072;2022-12-10T09:01:43;9.25;;;8.45;;
9330;SDS011;4704;50.470;12.072;2022-12-10T09:04:10;9.15;;;8.25;;
9330;SDS011;4704;50.470;12.072;2022-12-10T09:06:41;8.93;;;8.13;;
9330;SDS011;4704;50.470;12.072;2022-12-10T09:09:08;9.38;;;8.48;;
9330;SDS011;4704;50.470;12.072;2022-12-10T09:11:35;8.45;;;7.72;;
9330;SDS011;4704;50.470;12.072;2022-12-10T09:14:04;8.73;;;7.75;;
9330;SDS011;4704;50.470;12.072;2022-12-10T09:16:33;8.25;;;7.45;;
9330;SDS011;4704;50.470;12.072;2022-12-10T09:19:01;8.50;;;7.70;;
9330;SDS011;4704;50.470;12.072;2022-12-10T09:21:29;8.50;;;7.47;;
9330;SDS011;4704;50.470;12.072;2022-12-10T09:23:57;8.48;;;7.68;;
9330;SDS011;4704;50.470;12.072;2022-12-10T09:26:25;7.93;;;7.13;;
9330;SDS011;4704;50.470;12.072;2022-12-10T09:28:52;8.23;;;7.43;;
9330;SDS011;4704;50.470;12.072;2022-12-10T09:31:21;7.63;;;6.93;;
9330;SDS011;4704;50.470;12.072;2022-12-10T09:33:50;7.32;;;6.60;;
9330;SDS011;4704;50.470;12.072;2022-12-10T09:36:18;8.05;;;7.25;;
9330;SDS011;4704;50.470;12.072;2022-12-10T09:38:46;7.57;;;6.88;;
9330;SDS011;4704;50.470;12.072;2022-12-10T09:41:23;7.88;;;7.15;;
9330;SDS011;4704;50.470;12.072;2022-12-10T09:43:55;7.57;;;6.88;;
9330;SDS011;4704;50.470;12.072;2022-12-10T09:46:26;7.20;;;6.50;;
9330;SDS011;4704;50.470;12.072;2022-12-10T09:49:01;7.70;;;6.97;;
9330;SDS011;4704;50.470;12.072;2022-12-10T09:51:31;7.70;;;7.00;;
9330;SDS011;4704;50.470;12.072;2022-12-10T09:54:00;7.00;;;6.40;;
9330;SDS011;4704;50.470;12.072;2022-12-10T09:56:30;7.35;;;6.65;;
9330;SDS011;4704;50.470;12.072;2022-12-10T09:59:00;7.50;;;6.80;;
9330;SDS011;4704;50.470;12.072;2022-12-10T10:01:32;7.13;;;6.53;;
9330;SDS011;4704;50.470;12.072;2022-12-10T10:04:02;6.85;;;6.25;;
9330;SDS011;4704;50.470;12.072;2022-12-10T10:06:30;7.97;;;7.18;;
9330;SDS011;4704;50.470;12.072;2022-12-10T10:09:00;7.22;;;6.53;;
9330;SDS011;4704;50.470;12.072;2022-12-10T10:11:29;16.48;;;13.50;;
9330;SDS011;4704;50.470;12.072;2022-12-10T10:13:58;12.25;;;10.95;;
9330;SDS011;4704;50.470;12.072;2022-12-10T10:16:26;13.45;;;11.60;;
9330;SDS011;4704;50.470;12.072;2022-12-10T10:18:58;11.85;;;10.18;;
9330;SDS011;4704;50.470;12.072;2022-12-10T10:21:27;11.65;;;10.45;;
9330;SDS011;4704;50.470;12.072;2022-12-10T10:23:55;12.38;;;10.95;;
9330;SDS011;4704;50.470;12.072;2022-12-10T10:26:23;12.48;;;10.75;;
9330;SDS011;4704;50.470;12.072;2022-12-10T10:28:52;11.32;;;10.13;;
9330;SDS011;4704;50.470;12.072;2022-12-10T10:31:23;11.30;;;10.07;;
9330;SDS011;4704;50.470;12.072;2022-12-10T10:33:52;11.95;;;10.20;;
9330;SDS011;4704;50.470;12.072;2022-12-10T10:36:27;11.25;;;10.05;;
9330;SDS011;4704;50.470;12.072;2022-12-10T10:38:55;11.32;;;9.65;;
9330;SDS011;4704;50.470;12.072;2022-12-10T10:41:23;11.30;;;9.93;;
9330;SDS011;4704;50.470;12.072;2022-12-10T10:43:54;10.88;;;9.68;;
9330;SDS011;4704;50.470;12.072;2022-12-10T10:46:26;10.35;;;9.05;;
9330;SDS011;4704;50.470;12.072;2022-12-10T10:48:55;11.25;;;9.40;;
9330;SDS011;4704;50.470;12.072;2022-12-10T10:51:42;13.13;;;11.20;;
9330;SDS011;4704;50.470;12.072;2022-12-10T10:54:11;13.02;;;11.68;;
9330;SDS011;4704;50.470;12.072;2022-12-10T10:56:39;13.88;;;11.60;;
9330;SDS011;4704;50.470;12.072;2022-12-10T10:59:20;13.93;;;10.85;;
9330;SDS011;4704;50.470;12.072;2022-12-10T11:01:52;12.27;;;10.90;;
9330;SDS011;4704;50.470;12.072;2022-12-10T11:04:22;12.65;;;10.75;;
9330;SDS011;4704;50.470;12.072;2022-12-10T11:06:54;11.68;;;10.48;;
9330;SDS011;4704;50.470;12.072;2022-12-10T11:09:24;11.85;;;10.57;;
9330;SDS011;4704;50.470;12.072;2022-12-10T11:11:58;12.70;;;10.93;;
9330;SDS011;4704;50.470;12.072;2022-12-10T11:14:26;26.40;;;23.80;;
9330;SDS011;4704;50.470;12.072;2022-12-10T11:16:59;24.70;;;21.88;;
9330;SDS011;4704;50.470;12.072;2022-12-10T11:19:27;21.75;;;19.65;;
9330;SDS011;4704;50.470;12.072;2022-12-10T11:21:56;19.83;;;17.63;;
9330;SDS011;4704;50.470;12.072;2022-12-10T11:24:42;20.25;;;18.10;;
9330;SDS011;4704;50.470;12.072;2022-12-10T11:27:09;18.95;;;17.02;;
9330;SDS011;4704;50.470;12.072;2022-12-10T11:29:45;18.77;;;16.88;;
9330;SDS011;4704;50.470;12.072;2022-12-10T11:32:18;18.10;;;16.13;;
9330;SDS011;4704;50.470;12.072;2022-12-10T11:34:51;17.92;;;16.02;;
9330;SDS011;4704;50.470;12.072;2022-12-10T11:37:25;17.20;;;15.50;;
9330;SDS011;4704;50.470;12.072;2022-12-10T11:40:00;16.10;;;14.55;;
9330;SDS011;4704;50.470;12.072;2022-12-10T11:42:32;16.45;;;14.80;;
9330;SDS011;4704;50.470;12.072;2022-12-10T11:45:06;15.82;;;14.30;;
9330;SDS011;4704;50.470;12.072;2022-12-10T11:47:38;15.27;;;13.70;;
9330;SDS011;4704;50.470;12.072;2022-12-10T11:50:19;16.05;;;13.63;;
9330;SDS011;4704;50.470;12.072;2022-12-10T11:52:54;14.25;;;12.82;;
9330;SDS011;4704;50.470;12.072;2022-12-10T11:55:27;14.25;;;12.85;;
9330;SDS011;4704;50.470;12.072;2022-12-10T11:58:03;34.47;;;30.52;;
9330;SDS011;4704;50.470;12.072;2022-12-10T12:00:35;28.33;;;25.33;;
9330;SDS011;4704;50.470;12.072;2022-12-10T12:05:48;26.42;;;23.65;;
9330;SDS011;4704;50.470;12.072;2022-12-10T12:08:21;24.55;;;22.15;;
9330;SDS011;4704;50.470;12.072;2022-12-10T12:10:54;24.70;;;21.98;;
9330;SDS011;4704;50.470;12.072;2022-12-10T12:13:25;23.48;;;21.25;;
9330;SDS011;4704;50.470;12.072;2022-12-10T12:15:55;22.60;;;20.23;;
9330;SDS011;4704;50.470;12.072;2022-12-10T12:18:26;22.17;;;19.98;;
9330;SDS011;4704;50.470;12.072;2022-12-10T12:20:55;20.75;;;18.63;;
9330;SDS011;4704;50.470;12.072;2022-12-10T12:23:26;20.23;;;18.23;;
9330;SDS011;4704;50.470;12.072;2022-12-10T12:25:55;20.30;;;18.25;;
9330;SDS011;4704;50.470;12.072;2022-12-10T12:28:25;19.77;;;17.88;;
9330;SDS011;4704;50.470;12.072;2022-12-10T12:30:57;19.35;;;17.45;;
9330;SDS011;4704;50.470;12.072;2022-12-10T12:33:27;18.15;;;16.23;;
9330;SDS011;4704;50.470;12.072;2022-12-10T12:35:55;18.00;;;16.10;;
9330;SDS011;4704;50.470;12.072;2022-12-10T12:38:28;19.42;;;16.15;;
9330;SDS011;4704;50.470;12.072;2022-12-10T12:40:58;17.17;;;15.38;;
9330;SDS011;4704;50.470;12.072;2022-12-10T12:43:28;16.70;;;15.05;;
9330;SDS011;4704;50.470;12.072;2022-12-10T12:45:59;15.82;;;14.27;;
9330;SDS011;4704;50.470;12.072;2022-12-10T12:48:29;15.23;;;13.73;;
9330;SDS011;4704;50.470;12.072;2022-12-10T12:51:00;15.20;;;13.07;;
9330;SDS011;4704;50.470;12.072;2022-12-10T12:53:30;14.65;;;12.88;;
9330;SDS011;4704;50.470;12.072;2022-12-10T12:55:59;13.60;;;12.20;;
9330;SDS011;4704;50.470;12.072;2022-12-10T12:58:33;13.77;;;12.48;;
9330;SDS011;4704;50.470;12.072;2022-12-10T13:01:05;14.57;;;12.60;;
9330;SDS011;4704;50.470;12.072;2022-12-10T13:03:34;12.80;;;11.60;;
9330;SDS011;4704;50.470;12.072;2022-12-10T13:06:16;12.18;;;10.98;;
9330;SDS011;4704;50.470;12.072;2022-12-10T13:08:47;12.50;;;11.30;;
9330;SDS011;4704;50.470;12.072;2022-12-10T13:11:17;12.48;;;11.20;;
9330;SDS011;4704;50.470;12.072;2022-12-10T13:14:11;11.02;;;10.02;;
9330;SDS011;4704;50.470;12.072;2022-12-10T13:19:26;10.20;;;9.20;;
9330;SDS011;4704;50.470;12.072;2022-12-10T13:21:58;10.65;;;9.65;;
9330;SDS011;4704;50.470;12.072;2022-12-10T13:27:16;9.98;;;9.07;;
9330;SDS011;4704;50.470;12.072;2022-12-10T13:29:44;9.82;;;8.93;;
9330;SDS011;4704;50.470;12.072;2022-12-10T13:32:14;9.85;;;8.93;;
9330;SDS011;4704;50.470;12.072;2022-12-10T13:34:43;9.52;;;8.63;;
9330;SDS011;4704;50.470;12.072;2022-12-10T13:37:15;9.05;;;8.15;;
9330;SDS011;4704;50.470;12.072;2022-12-10T13:39:50;8.88;;;8.07;;
9330;SDS011;4704;50.470;12.072;2022-12-10T13:42:31;8.23;;;7.43;;
9330;SDS011;4704;50.470;12.072;2022-12-10T13:45:24;8.05;;;7.32;;
9330;SDS011;4704;50.470;12.072;2022-12-10T13:47:53;8.02;;;7.32;;
9330;SDS011;4704;50.470;12.072;2022-12-10T13:50:23;9.32;;;7.43;;
9330;SDS011;4704;50.470;12.072;2022-12-10T13:53:00;9.27;;;7.30;;
9330;SDS011;4704;50.470;12.072;2022-12-10T13:55:31;8.32;;;7.32;;
9330;SDS011;4704;50.470;12.072;2022-12-10T13:58:17;11.80;;;7.28;;
9330;SDS011;4704;50.470;12.072;2022-12-10T14:00:48;9.73;;;7.30;;
9330;SDS011;4704;50.470;12.072;2022-12-10T14:06:20;7.50;;;6.65;;
9330;SDS011;4704;50.470;12.072;2022-12-10T14:08:55;8.55;;;6.70;;
9330;SDS011;4704;50.470;12.072;2022-12-10T14:11:24;8.50;;;6.75;;
9330;SDS011;4704;50.470;12.072;2022-12-10T14:13:55;14.15;;;9.23;;
9330;SDS011;4704;50.470;12.072;2022-12-10T14:16:24;17.45;;;14.60;;
9330;SDS011;4704;50.470;12.072;2022-12-10T14:18:54;18.52;;;12.57;;
9330;SDS011;4704;50.470;12.072;2022-12-10T14:21:22;16.70;;;12.00;;
9330;SDS011;4704;50.470;12.072;2022-12-10T14:23:51;14.95;;;11.02;;
9330;SDS011;4704;50.470;12.072;2022-12-10T14:26:19;15.65;;;10.98;;
9330;SDS011;4704;50.470;12.072;2022-12-10T14:28:48;16.10;;;11.50;;
9330;SDS011;4704;50.470;12.072;2022-12-10T14:31:18;13.23;;;10.40;;
9330;SDS011;4704;50.470;12.072;2022-12-10T14:33:47;14.65;;;10.85;;
9330;SDS011;4704;50.470;12.072;2022-12-10T14:36:16;14.15;;;9.98;;
9330;SDS011;4704;50.470;12.072;2022-12-10T14:38:45;13.52;;;10.13;;
9330;SDS011;4704;50.470;12.072;2022-12-10T14:41:14;11.88;;;9.25;;
9330;SDS011;4704;50.470;12.072;2022-12-10T14:43:42;12.27;;;9.15;;
9330;SDS011;4704;50.470;12.072;2022-12-10T14:46:13;12.07;;;9.25;;
9330;SDS011;4704;50.470;12.072;2022-12-10T14:48:42;10.73;;;8.88;;
9330;SDS011;4704;50.470;12.072;2022-12-10T14:51:12;10.60;;;9.35;;
9330;SDS011;4704;50.470;12.072;2022-12-10T14:53:41;10.77;;;8.57;;
9330;SDS011;4704;50.470;12.072;2022-12-10T14:56:08;10.20;;;8.27;;
9330;SDS011;4704;50.470;12.072;2022-12-10T14:58:39;11.85;;;8.43;;
9330;SDS011;4704;50.470;12.072;2022-12-10T15:01:09;11.30;;;8.65;;
9330;SDS011;4704;50.470;12.072;2022-12-10T15:03:39;11.43;;;8.45;;
9330;SDS011;4704;50.470;12.072;2022-12-10T15:06:13;10.07;;;7.93;;
9330;SDS011;4704;50.470;12.072;2022-12-10T15:08:42;10.30;;;7.93;;
9330;SDS011;4704;50.470;12.072;2022-12-10T15:11:10;9.57;;;7.30;;
9330;SDS011;4704;50.470;12.072;2022-12-10T15:13:39;9.02;;;7.45;;
9330;SDS011;4704;50.470;12.072;2022-12-10T15:16:13;8.82;;;7.47;;
9330;SDS011;4704;50.470;12.072;2022-12-10T15:18:42;9.55;;;7.10;;
9330;SDS011;4704;50.470;12.072;2022-12-10T15:21:10;8.15;;;6.93;;